Time;durP1;ratioP1;P1;durP2;ratioP2;P2;SDS_P1;SDS_P2;PMS_P1;PMS_P2;Temp;Humidity;BMP_temperature;BMP_pressure;BME280_temperature;BME280_humidity;BME280_pressure;Samples;Min_cycle;Max_cycle;Signal;HPM_P1;HPM_P2
2023/12/23 00:01:06;;;;;;;0.20;0.20;;;;;;;;;;4977363;28;20268;-74
2023/12/23 00:03:32;;;;;;;0.20;0.20;;;;;;;;;;4986920;28;20286;-74
2023/12/23 00:05:59;;;;;;;0.20;0.20;;;;;;;;;;4976873;28;20569;-73
2023/12/23 00:08:25;;;;;;;0.20;0.20;;;;;;;;;;4986794;28;20249;-73
2023/12/23 00:10:51;;;;;;;0.20;0.20;;;;;;;;;;4977280;28;20281;-73
2023/12/23 00:13:18;;;;;;;0.20;0.20;;;;;;;;;;4986617;28;20270;-73
2023/12/23 00:15:44;;;;;;;0.20;0.20;;;;;;;;;;4977156;28;20249;-73
2023/12/23 00:18:12;;;;;;;0.20;0.20;;;;;;;;;;4986648;28;20297;-73
2023/12/23 00:20:38;;;;;;;0.20;0.20;;;;;;;;;;4977284;28;20320;-73
2023/12/23 00:23:05;;;;;;;0.20;0.20;;;;;;;;;;4986825;28;20249;-73
2023/12/23 00:25:31;;;;;;;0.20;0.20;;;;;;;;;;4976778;28;20257;-73
2023/12/23 00:27:57;;;;;;;0.20;0.20;;;;;;;;;;4986512;28;20244;-73
2023/12/23 00:30:24;;;;;;;0.20;0.20;;;;;;;;;;4977115;28;20209;-73
2023/12/23 00:32:51;;;;;;;0.20;0.20;;;;;;;;;;4986329;28;20281;-73
2023/12/23 00:35:18;;;;;;;0.20;0.20;;;;;;;;;;4976392;28;20286;-73
2023/12/23 00:37:45;;;;;;;0.20;0.20;;;;;;;;;;4986287;28;20517;-72
2023/12/23 00:40:11;;;;;;;0.20;0.20;;;;;;;;;;4976644;28;20206;-73
2023/12/23 00:42:37;;;;;;;0.20;0.20;;;;;;;;;;4986086;28;20266;-73
2023/12/23 00:45:04;;;;;;;0.20;0.20;;;;;;;;;;4986972;28;20257;-73
2023/12/23 00:47:31;;;;;;;0.20;0.20;;;;;;;;;;4975448;28;20261;-73
2023/12/23 00:49:57;;;;;;;0.20;0.20;;;;;;;;;;4986768;28;20210;-73
2023/12/23 00:52:25;;;;;;;0.20;0.20;;;;;;;;;;4975707;28;20477;-73
2023/12/23 00:54:51;;;;;;;0.20;0.20;;;;;;;;;;4986459;28;20207;-73
2023/12/23 00:57:17;;;;;;;0.20;0.20;;;;;;;;;;4975584;28;20258;-73
2023/12/23 00:59:44;;;;;;;0.20;0.20;;;;;;;;;;4986550;28;20249;-74
2023/12/23 01:02:10;;;;;;;0.20;0.20;;;;;;;;;;4975547;28;20268;-73
2023/12/23 01:04:38;;;;;;;0.20;0.20;;;;;;;;;;4986523;28;20308;-73
2023/12/23 01:07:04;;;;;;;0.20;0.20;;;;;;;;;;4975342;28;20303;-73
2023/12/23 01:09:32;;;;;;;0.20;0.20;;;;;;;;;;4986910;28;20272;-72
2023/12/23 01:11:58;;;;;;;0.20;0.20;;;;;;;;;;4975388;28;20361;-73
2023/12/23 01:14:25;;;;;;;0.20;0.20;;;;;;;;;;4986608;28;20244;-73
2023/12/23 01:16:51;;;;;;;0.20;0.20;;;;;;;;;;4975344;28;20497;-73
2023/12/23 01:19:18;;;;;;;0.20;0.20;;;;;;;;;;4986439;28;20216;-74
2023/12/23 01:21:44;;;;;;;0.20;0.20;;;;;;;;;;4975327;28;20243;-73
2023/12/23 01:24:10;;;;;;;0.20;0.20;;;;;;;;;;4986283;28;20241;-73
2023/12/23 01:26:38;;;;;;;0.20;0.20;;;;;;;;;;4975323;28;20455;-74
2023/12/23 01:29:05;;;;;;;0.20;0.20;;;;;;;;;;4986147;28;20403;-75
2023/12/23 01:31:31;;;;;;;0.23;0.23;;;;;;;;;;4975328;28;20267;-73
2023/12/23 01:33:57;;;;;;;0.20;0.20;;;;;;;;;;4986100;28;20278;-73
2023/12/23 01:36:24;;;;;;;0.30;0.30;;;;;;;;;;4975270;28;20308;-72
2023/12/23 01:38:50;;;;;;;0.20;0.20;;;;;;;;;;4985840;28;20226;-73
2023/12/23 01:41:16;;;;;;;0.30;0.30;;;;;;;;;;4975028;28;20242;-72
2023/12/23 01:43:44;;;;;;;0.20;0.20;;;;;;;;;;4985626;28;20277;-73
2023/12/23 01:46:11;;;;;;;0.20;0.20;;;;;;;;;;4974396;28;20251;-73
2023/12/23 01:48:38;;;;;;;0.23;0.23;;;;;;;;;;4985424;28;20216;-73
2023/12/23 01:51:05;;;;;;;0.20;0.20;;;;;;;;;;4974977;28;20276;-74
2023/12/23 01:53:31;;;;;;;0.27;0.27;;;;;;;;;;4985229;28;20220;-73
2023/12/23 01:55:58;;;;;;;0.30;0.30;;;;;;;;;;4974992;28;20245;-73
2023/12/23 01:58:25;;;;;;;0.20;0.20;;;;;;;;;;4985031;28;20217;-74
2023/12/23 02:00:53;;;;;;;0.20;0.20;;;;;;;;;;4974857;28;20248;-73
2023/12/23 02:03:19;;;;;;;0.20;0.20;;;;;;;;;;4984684;28;20310;-73
2023/12/23 02:05:46;;;;;;;0.30;0.30;;;;;;;;;;4974731;28;20253;-73
2023/12/23 02:08:13;;;;;;;0.23;0.23;;;;;;;;;;4984770;28;20405;-73
2023/12/23 02:10:41;;;;;;;0.20;0.20;;;;;;;;;;4975069;28;20245;-73
2023/12/23 02:13:12;;;;;;;0.20;0.20;;;;;;;;;;4984832;28;20209;-73
2023/12/23 02:15:38;;;;;;;0.20;0.20;;;;;;;;;;4974852;28;20316;-73
2023/12/23 02:18:06;;;;;;;0.27;0.27;;;;;;;;;;4984504;28;20205;-74
2023/12/23 02:20:33;;;;;;;0.30;0.30;;;;;;;;;;4974744;28;20271;-73
2023/12/23 02:23:00;;;;;;;0.20;0.20;;;;;;;;;;4984567;28;20234;-73
2023/12/23 02:25:27;;;;;;;0.20;0.20;;;;;;;;;;4974928;28;20401;-73
2023/12/23 02:27:54;;;;;;;0.20;0.20;;;;;;;;;;4984395;28;20405;-73
2023/12/23 02:30:22;;;;;;;0.30;0.30;;;;;;;;;;4974640;28;20217;-72
2023/12/23 02:32:49;;;;;;;0.20;0.20;;;;;;;;;;4984023;28;20276;-73
2023/12/23 02:35:15;;;;;;;0.20;0.20;;;;;;;;;;4975008;28;20405;-73
2023/12/23 02:37:42;;;;;;;0.27;0.27;;;;;;;;;;4983866;28;20213;-72
2023/12/23 02:40:10;;;;;;;0.20;0.20;;;;;;;;;;4984760;28;20209;-73
2023/12/23 02:42:36;;;;;;;0.20;0.20;;;;;;;;;;4957604;28;20280;-73
2023/12/23 02:45:03;;;;;;;0.20;0.20;;;;;;;;;;4984753;28;20277;-72
2023/12/23 02:47:29;;;;;;;0.20;0.20;;;;;;;;;;4973617;28;20245;-73
2023/12/23 02:49:55;;;;;;;0.20;0.20;;;;;;;;;;4984970;28;20399;-72
2023/12/23 02:52:22;;;;;;;0.20;0.20;;;;;;;;;;4973616;28;20481;-73
2023/12/23 02:54:48;;;;;;;0.20;0.20;;;;;;;;;;4984893;28;20263;-72
2023/12/23 02:57:16;;;;;;;0.20;0.20;;;;;;;;;;4973486;28;20267;-73
2023/12/23 02:59:42;;;;;;;0.20;0.20;;;;;;;;;;4984605;28;20237;-72
2023/12/23 03:02:09;;;;;;;0.20;0.20;;;;;;;;;;4973312;28;20265;-73
2023/12/23 03:04:35;;;;;;;0.20;0.20;;;;;;;;;;4984751;28;20237;-73
2023/12/23 03:07:02;;;;;;;0.20;0.20;;;;;;;;;;4973454;28;20248;-73
2023/12/23 03:09:28;;;;;;;0.20;0.20;;;;;;;;;;4984286;28;20439;-73
2023/12/23 03:11:54;;;;;;;0.20;0.20;;;;;;;;;;4973530;28;20317;-73
2023/12/23 03:14:22;;;;;;;0.30;0.30;;;;;;;;;;4984837;28;20403;-73
2023/12/23 03:16:48;;;;;;;0.57;0.57;;;;;;;;;;4973636;28;20501;-73
2023/12/23 03:19:15;;;;;;;0.20;0.20;;;;;;;;;;4984207;28;20459;-73
2023/12/23 03:21:45;;;;;;;0.20;0.20;;;;;;;;;;4973571;28;20297;-73
2023/12/23 03:24:11;;;;;;;0.20;0.20;;;;;;;;;;4984564;28;20210;-73
2023/12/23 03:26:38;;;;;;;0.20;0.20;;;;;;;;;;4973473;28;20262;-73
2023/12/23 03:29:05;;;;;;;0.20;0.20;;;;;;;;;;4984511;28;20218;-73
2023/12/23 03:31:33;;;;;;;0.20;0.20;;;;;;;;;;4973620;28;20345;-73
2023/12/23 03:34:00;;;;;;;0.20;0.20;;;;;;;;;;4983934;28;20214;-73
2023/12/23 03:36:27;;;;;;;0.20;0.20;;;;;;;;;;4973428;28;20250;-73
2023/12/23 03:38:53;;;;;;;0.20;0.20;;;;;;;;;;4984297;28;20213;-72
2023/12/23 03:41:19;;;;;;;0.20;0.20;;;;;;;;;;4973735;28;20473;-73
2023/12/23 03:43:46;;;;;;;0.20;0.20;;;;;;;;;;4984120;28;20210;-73
2023/12/23 03:46:12;;;;;;;0.20;0.20;;;;;;;;;;4973577;28;20294;-73
2023/12/23 03:48:40;;;;;;;0.20;0.20;;;;;;;;;;4984105;28;20214;-73
2023/12/23 03:51:07;;;;;;;0.20;0.20;;;;;;;;;;4973556;28;20253;-74
2023/12/23 03:53:34;;;;;;;0.20;0.20;;;;;;;;;;4983957;28;20238;-73
2023/12/23 03:56:00;;;;;;;0.20;0.20;;;;;;;;;;4973552;28;20238;-73
2023/12/23 03:58:26;;;;;;;0.20;0.20;;;;;;;;;;4983689;28;20210;-73
2023/12/23 04:00:53;;;;;;;0.20;0.20;;;;;;;;;;4973684;28;20313;-72
2023/12/23 04:03:19;;;;;;;0.20;0.20;;;;;;;;;;4983562;28;20526;-72
2023/12/23 04:05:47;;;;;;;0.20;0.20;;;;;;;;;;4973460;28;20316;-73
2023/12/23 04:08:13;;;;;;;0.20;0.20;;;;;;;;;;4983509;28;20397;-73
2023/12/23 04:10:42;;;;;;;0.20;0.20;;;;;;;;;;4977129;28;20249;-73
2023/12/23 04:13:08;;;;;;;0.20;0.20;;;;;;;;;;4986728;28;20277;-72
2023/12/23 04:15:34;;;;;;;0.20;0.20;;;;;;;;;;4977281;28;20550;-73
2023/12/23 04:18:01;;;;;;;0.20;0.20;;;;;;;;;;4986792;28;20234;-73
2023/12/23 04:20:27;;;;;;;0.20;0.20;;;;;;;;;;4976993;28;20277;-73
2023/12/23 04:22:55;;;;;;;0.20;0.20;;;;;;;;;;4986391;28;20234;-73
2023/12/23 04:25:21;;;;;;;0.20;0.20;;;;;;;;;;4977009;28;20398;-73
2023/12/23 04:27:48;;;;;;;0.20;0.20;;;;;;;;;;4986241;28;20582;-73
2023/12/23 04:30:14;;;;;;;0.20;0.20;;;;;;;;;;4977301;28;20371;-73
2023/12/23 04:32:41;;;;;;;0.20;0.20;;;;;;;;;;4986265;28;20213;-73
2023/12/23 04:35:08;;;;;;;0.20;0.20;;;;;;;;;;4986824;28;20203;-73
2023/12/23 04:37:39;;;;;;;0.20;0.20;;;;;;;;;;4959929;28;20402;-73
2023/12/23 04:40:08;;;;;;;0.20;0.20;;;;;;;;;;4987223;28;20195;-73
2023/12/23 04:42:34;;;;;;;0.20;0.20;;;;;;;;;;4959744;28;20311;-73
2023/12/23 04:45:01;;;;;;;0.20;0.20;;;;;;;;;;4986770;28;20214;-73
2023/12/23 04:47:27;;;;;;;0.20;0.20;;;;;;;;;;4975755;28;20453;-73
2023/12/23 04:49:53;;;;;;;0.20;0.20;;;;;;;;;;4986676;28;20214;-73
2023/12/23 04:52:20;;;;;;;0.20;0.20;;;;;;;;;;4975492;28;20446;-73
2023/12/23 04:54:46;;;;;;;0.20;0.20;;;;;;;;;;4986991;28;20456;-73
2023/12/23 04:57:14;;;;;;;0.20;0.20;;;;;;;;;;4975409;28;20239;-73
2023/12/23 04:59:40;;;;;;;0.20;0.20;;;;;;;;;;4986696;28;20206;-74
2023/12/23 05:02:07;;;;;;;0.30;0.30;;;;;;;;;;4975431;28;20305;-73
2023/12/23 05:04:33;;;;;;;0.20;0.20;;;;;;;;;;4986440;28;20241;-73
2023/12/23 05:06:59;;;;;;;0.20;0.20;;;;;;;;;;4975315;28;20498;-73
2023/12/23 05:09:26;;;;;;;0.20;0.20;;;;;;;;;;4986504;28;20277;-73
2023/12/23 05:11:52;;;;;;;0.20;0.20;;;;;;;;;;4975612;28;20296;-73
2023/12/23 05:14:20;;;;;;;0.20;0.20;;;;;;;;;;4986263;28;20282;-72
2023/12/23 05:16:46;;;;;;;0.20;0.20;;;;;;;;;;4975229;28;20246;-74
2023/12/23 05:19:13;;;;;;;0.20;0.20;;;;;;;;;;4986441;28;20389;-73
2023/12/23 05:21:39;;;;;;;0.20;0.20;;;;;;;;;;4974401;28;20242;-73
2023/12/23 05:24:06;;;;;;;0.20;0.20;;;;;;;;;;4986234;28;20206;-74
2023/12/23 05:26:32;;;;;;;0.20;0.20;;;;;;;;;;4975125;28;20261;-73
2023/12/23 05:28:58;;;;;;;0.20;0.20;;;;;;;;;;4986099;28;20245;-73
2023/12/23 05:31:26;;;;;;;0.20;0.20;;;;;;;;;;4975317;28;20544;-73
2023/12/23 05:33:55;;;;;;;0.20;0.20;;;;;;;;;;4985866;28;20237;-73
2023/12/23 05:36:21;;;;;;;0.20;0.20;;;;;;;;;;4975291;28;20330;-72
2023/12/23 05:38:48;;;;;;;0.20;0.20;;;;;;;;;;4985829;28;20407;-73
2023/12/23 05:41:14;;;;;;;0.20;0.20;;;;;;;;;;4975308;28;20656;-73
2023/12/23 05:43:40;;;;;;;0.20;0.20;;;;;;;;;;4985621;28;20307;-73
2023/12/23 05:46:07;;;;;;;0.20;0.20;;;;;;;;;;4975472;28;20644;-73
2023/12/23 05:48:35;;;;;;;0.20;0.20;;;;;;;;;;4985173;28;20230;-72
2023/12/23 05:51:01;;;;;;;0.20;0.20;;;;;;;;;;4975240;28;20242;-72
2023/12/23 05:53:27;;;;;;;0.20;0.20;;;;;;;;;;4985008;28;20286;-73
2023/12/23 05:55:54;;;;;;;0.20;0.20;;;;;;;;;;4975327;28;20451;-73
2023/12/23 05:58:20;;;;;;;0.20;0.20;;;;;;;;;;4984826;28;20209;-73
2023/12/23 06:00:47;;;;;;;0.20;0.20;;;;;;;;;;4975320;28;20573;-73
2023/12/23 06:03:13;;;;;;;0.20;0.20;;;;;;;;;;4984639;28;20405;-73
2023/12/23 06:05:41;;;;;;;0.20;0.20;;;;;;;;;;4975012;28;20482;-73
2023/12/23 06:08:07;;;;;;;0.20;0.20;;;;;;;;;;4984632;28;20244;-73
2023/12/23 06:10:34;;;;;;;0.20;0.20;;;;;;;;;;4975360;28;20312;-73
2023/12/23 06:13:00;;;;;;;0.20;0.20;;;;;;;;;;4984085;28;20207;-73
2023/12/23 06:15:26;;;;;;;0.20;0.20;;;;;;;;;;4975099;28;20493;-72
2023/12/23 06:17:53;;;;;;;0.27;0.27;;;;;;;;;;4984399;28;20539;-73
2023/12/23 06:20:19;;;;;;;0.20;0.20;;;;;;;;;;4974858;28;20240;-72
2023/12/23 06:22:47;;;;;;;0.20;0.20;;;;;;;;;;4984275;28;20242;-73
2023/12/23 06:25:13;;;;;;;0.20;0.20;;;;;;;;;;4974883;28;20278;-73
2023/12/23 06:27:40;;;;;;;0.20;0.20;;;;;;;;;;4983922;28;20256;-72
2023/12/23 06:30:07;;;;;;;0.20;0.20;;;;;;;;;;4984914;28;20250;-74
2023/12/23 06:32:33;;;;;;;0.20;0.20;;;;;;;;;;4957568;28;20214;-73
2023/12/23 06:35:00;;;;;;;0.20;0.20;;;;;;;;;;4985209;28;20206;-73
2023/12/23 06:37:26;;;;;;;0.20;0.20;;;;;;;;;;4973884;28;20242;-76
2023/12/23 06:39:54;;;;;;;0.20;0.20;;;;;;;;;;4985173;28;20465;-73
2023/12/23 06:42:20;;;;;;;0.20;0.20;;;;;;;;;;4973614;28;20269;-73
2023/12/23 06:44:47;;;;;;;0.20;0.20;;;;;;;;;;4985035;28;20211;-73
2023/12/23 06:47:13;;;;;;;0.23;0.23;;;;;;;;;;4973555;28;20249;-73
2023/12/23 06:49:39;;;;;;;0.20;0.20;;;;;;;;;;4984969;28;20213;-73
2023/12/23 06:52:07;;;;;;;0.20;0.20;;;;;;;;;;4973692;28;20242;-73
2023/12/23 06:54:33;;;;;;;0.20;0.20;;;;;;;;;;4985136;28;20210;-74
2023/12/23 06:57:01;;;;;;;0.20;0.20;;;;;;;;;;4973785;28;20238;-73
2023/12/23 06:59:27;;;;;;;0.20;0.20;;;;;;;;;;4984912;28;20454;-73
2023/12/23 07:01:53;;;;;;;0.20;0.20;;;;;;;;;;4973705;28;20337;-73
2023/12/23 07:04:20;;;;;;;0.20;0.20;;;;;;;;;;4984473;28;20246;-73
2023/12/23 07:06:46;;;;;;;0.20;0.20;;;;;;;;;;4973598;28;20308;-72
2023/12/23 07:09:12;;;;;;;0.20;0.20;;;;;;;;;;4984711;28;20214;-73
2023/12/23 07:11:39;;;;;;;0.20;0.20;;;;;;;;;;4973835;28;20258;-73
2023/12/23 07:14:07;;;;;;;0.20;0.20;;;;;;;;;;4984524;28;20394;-73
2023/12/23 07:16:33;;;;;;;0.20;0.20;;;;;;;;;;4973718;28;20245;-73
2023/12/23 07:18:59;;;;;;;0.20;0.20;;;;;;;;;;4984413;28;20390;-72
2023/12/23 07:21:26;;;;;;;0.20;0.20;;;;;;;;;;4973818;28;20272;-73
2023/12/23 07:23:52;;;;;;;0.20;0.20;;;;;;;;;;4984244;28;20248;-72
2023/12/23 07:26:18;;;;;;;0.20;0.20;;;;;;;;;;4973804;28;20468;-73
2023/12/23 07:28:45;;;;;;;0.20;0.20;;;;;;;;;;4984023;28;20237;-72
2023/12/23 07:31:13;;;;;;;0.20;0.20;;;;;;;;;;4973742;28;20269;-72
2023/12/23 07:33:39;;;;;;;0.20;0.20;;;;;;;;;;4984000;28;20224;-73
2023/12/23 07:36:06;;;;;;;0.20;0.20;;;;;;;;;;4973918;28;20262;-73
2023/12/23 07:38:32;;;;;;;0.20;0.20;;;;;;;;;;4983789;28;20265;-73
2023/12/23 07:40:58;;;;;;;0.20;0.20;;;;;;;;;;4973930;28;20301;-73
2023/12/23 07:43:25;;;;;;;0.20;0.20;;;;;;;;;;4984078;28;20209;-73
2023/12/23 07:45:51;;;;;;;0.20;0.20;;;;;;;;;;4977481;28;20304;-73
2023/12/23 07:48:19;;;;;;;0.23;0.23;;;;;;;;;;4987388;28;20419;-72
2023/12/23 07:50:46;;;;;;;0.20;0.20;;;;;;;;;;4977481;28;20257;-73
2023/12/23 07:53:12;;;;;;;0.20;0.20;;;;;;;;;;4987049;28;20246;-73
2023/12/23 07:55:39;;;;;;;0.20;0.20;;;;;;;;;;4977780;28;20433;-72
2023/12/23 07:58:05;;;;;;;0.30;0.30;;;;;;;;;;4986962;28;20274;-73
2023/12/23 08:00:32;;;;;;;3.33;3.13;;;;;;;;;;4977887;28;20442;-73
2023/12/23 08:02:58;;;;;;;0.20;0.20;;;;;;;;;;4986744;28;20210;-73
2023/12/23 08:05:26;;;;;;;0.20;0.20;;;;;;;;;;4977172;28;20275;-73
2023/12/23 08:07:52;;;;;;;0.20;0.20;;;;;;;;;;4986370;28;20270;-73
2023/12/23 08:10:19;;;;;;;0.20;0.20;;;;;;;;;;4977307;28;20217;-72
2023/12/23 08:12:45;;;;;;;0.27;0.27;;;;;;;;;;4986654;28;20274;-73
2023/12/23 08:15:11;;;;;;;0.20;0.20;;;;;;;;;;4977247;28;20234;-73
2023/12/23 08:17:38;;;;;;;0.20;0.20;;;;;;;;;;4986526;28;20218;-74
2023/12/23 08:20:05;;;;;;;0.20;0.20;;;;;;;;;;4987657;28;20206;-73
2023/12/23 08:22:32;;;;;;;0.20;0.20;;;;;;;;;;4976204;28;20278;-72
2023/12/23 08:24:59;;;;;;;0.20;0.20;;;;;;;;;;4987224;28;20276;-73
2023/12/23 08:27:25;;;;;;;0.20;0.20;;;;;;;;;;4976170;28;20636;-73
2023/12/23 08:29:52;;;;;;;0.20;0.20;;;;;;;;;;4987059;28;20205;-73
2023/12/23 08:32:18;;;;;;;0.20;0.20;;;;;;;;;;4976012;28;20261;-73
2023/12/23 08:34:45;;;;;;;0.20;0.20;;;;;;;;;;4986986;28;20226;-73
2023/12/23 08:37:12;;;;;;;0.20;0.20;;;;;;;;;;4975776;28;20238;-73
2023/12/23 08:39:40;;;;;;;0.20;0.20;;;;;;;;;;4986932;28;20312;-72
2023/12/23 08:42:06;;;;;;;0.10;0.10;;;;;;;;;;4975937;28;20288;-74
2023/12/23 08:44:32;;;;;;;0.20;0.20;;;;;;;;;;4986879;28;20553;-73
2023/12/23 08:46:59;;;;;;;0.20;0.20;;;;;;;;;;4975958;28;20280;-73
2023/12/23 08:49:25;;;;;;;0.20;0.20;;;;;;;;;;4987067;28;20277;-73
2023/12/23 08:51:51;;;;;;;0.20;0.20;;;;;;;;;;4975915;28;20238;-73
2023/12/23 08:54:18;;;;;;;0.20;0.20;;;;;;;;;;4986613;28;20441;-73
2023/12/23 08:56:46;;;;;;;0.20;0.20;;;;;;;;;;4975798;28;20246;-72
2023/12/23 08:59:16;;;;;;;0.20;0.20;;;;;;;;;;4986237;28;20548;-72
2023/12/23 09:01:43;;;;;;;0.30;0.30;;;;;;;;;;4975937;28;20407;-73
2023/12/23 09:04:10;;;;;;;0.20;0.20;;;;;;;;;;4986435;28;20437;-74
2023/12/23 09:06:36;;;;;;;0.20;0.20;;;;;;;;;;4975973;28;20252;-73
2023/12/23 09:09:03;;;;;;;0.20;0.20;;;;;;;;;;4986332;28;20230;-73
2023/12/23 09:11:29;;;;;;;0.20;0.20;;;;;;;;;;4975696;28;20242;-73
2023/12/23 09:13:57;;;;;;;0.20;0.20;;;;;;;;;;4986345;28;20406;-73
2023/12/23 09:16:23;;;;;;;0.20;0.20;;;;;;;;;;4975673;28;20273;-73
2023/12/23 09:18:49;;;;;;;0.20;0.20;;;;;;;;;;4986288;28;20241;-73
2023/12/23 09:21:16;;;;;;;0.20;0.20;;;;;;;;;;4975625;28;20261;-73
2023/12/23 09:23:42;;;;;;;0.20;0.20;;;;;;;;;;4985966;28;20274;-74
2023/12/23 09:26:09;;;;;;;0.20;0.20;;;;;;;;;;4975714;28;20310;-73
2023/12/23 09:28:36;;;;;;;0.20;0.20;;;;;;;;;;4985762;28;20285;-73
2023/12/23 09:31:04;;;;;;;0.20;0.20;;;;;;;;;;4975831;28;20242;-73
2023/12/23 09:33:30;;;;;;;0.20;0.20;;;;;;;;;;4985751;28;20445;-73
2023/12/23 09:35:56;;;;;;;0.20;0.20;;;;;;;;;;4975319;28;20276;-73
2023/12/23 09:38:23;;;;;;;0.20;0.20;;;;;;;;;;4985309;28;20212;-74
2023/12/23 09:40:49;;;;;;;0.20;0.20;;;;;;;;;;4975417;28;20258;-73
2023/12/23 09:43:17;;;;;;;0.20;0.20;;;;;;;;;;4985108;28;20210;-74
2023/12/23 09:45:43;;;;;;;0.20;0.20;;;;;;;;;;4975612;28;20486;-73
2023/12/23 09:48:11;;;;;;;0.20;0.20;;;;;;;;;;4984933;28;20246;-74
2023/12/23 09:50:38;;;;;;;0.20;0.20;;;;;;;;;;4975501;28;20253;-73
2023/12/23 09:53:04;;;;;;;0.20;0.20;;;;;;;;;;4984805;28;20229;-74
2023/12/23 09:55:31;;;;;;;0.20;0.20;;;;;;;;;;4975292;28;20265;-74
2023/12/23 09:57:58;;;;;;;0.40;0.40;;;;;;;;;;4985007;28;20429;-73
2023/12/23 10:00:24;;;;;;;0.20;0.20;;;;;;;;;;4975537;28;20557;-73
2023/12/23 10:02:50;;;;;;;0.23;0.23;;;;;;;;;;4984738;28;20318;-74
2023/12/23 10:05:18;;;;;;;0.20;0.20;;;;;;;;;;4975079;28;20458;-74
2023/12/23 10:07:45;;;;;;;0.20;0.20;;;;;;;;;;4983736;28;20206;-73
2023/12/23 10:10:12;;;;;;;0.20;0.20;;;;;;;;;;4975525;28;20209;-74
2023/12/23 10:12:38;;;;;;;0.20;0.20;;;;;;;;;;4984409;28;20213;-74
2023/12/23 10:15:05;;;;;;;0.20;0.20;;;;;;;;;;4985165;28;20234;-73
2023/12/23 10:17:32;;;;;;;0.20;0.20;;;;;;;;;;4974268;28;20242;-73
2023/12/23 10:19:59;;;;;;;0.20;0.20;;;;;;;;;;4985018;28;20257;-73
2023/12/23 10:22:28;;;;;;;0.20;0.20;;;;;;;;;;4974110;28;20528;-74
2023/12/23 10:24:55;;;;;;;0.20;0.20;;;;;;;;;;4985286;28;20206;-73
2023/12/23 10:27:21;;;;;;;0.20;0.20;;;;;;;;;;4974059;28;20585;-73
2023/12/23 10:29:49;;;;;;;0.20;0.20;;;;;;;;;;4984820;28;20296;-73
2023/12/23 10:32:15;;;;;;;0.20;0.20;;;;;;;;;;4973922;28;20309;-73
2023/12/23 10:34:43;;;;;;;0.20;0.20;;;;;;;;;;4985079;28;20239;-73
2023/12/23 10:37:10;;;;;;;0.20;0.20;;;;;;;;;;4974107;28;20246;-73
2023/12/23 10:39:41;;;;;;;0.20;0.20;;;;;;;;;;4985020;28;20203;-73
2023/12/23 10:42:09;;;;;;;0.20;0.20;;;;;;;;;;4973885;28;20249;-73
2023/12/23 10:44:36;;;;;;;0.20;0.20;;;;;;;;;;4985180;28;20218;-73
2023/12/23 10:47:03;;;;;;;0.20;0.20;;;;;;;;;;4973724;28;20242;-73
2023/12/23 10:49:30;;;;;;;0.20;0.20;;;;;;;;;;4984416;28;20486;-73
2023/12/23 10:51:56;;;;;;;0.23;0.23;;;;;;;;;;4973771;28;20562;-73
2023/12/23 10:54:27;;;;;;;0.20;0.20;;;;;;;;;;4984948;28;20455;-73
2023/12/23 10:56:56;;;;;;;0.20;0.20;;;;;;;;;;4973841;28;20258;-73
2023/12/23 10:59:23;;;;;;;0.20;0.20;;;;;;;;;;4984945;28;20238;-73
2023/12/23 11:01:49;;;;;;;0.20;0.20;;;;;;;;;;4973742;28;20245;-73
2023/12/23 11:04:16;;;;;;;0.20;0.20;;;;;;;;;;4984185;28;20230;-73
2023/12/23 11:06:44;;;;;;;0.20;0.20;;;;;;;;;;4973868;28;20508;-73
2023/12/23 11:09:12;;;;;;;0.20;0.20;;;;;;;;;;4984095;28;20233;-73
2023/12/23 11:11:38;;;;;;;0.20;0.20;;;;;;;;;;4973745;28;20249;-74
2023/12/23 11:14:07;;;;;;;0.30;0.30;;;;;;;;;;4984014;28;20450;-74
2023/12/23 11:16:34;;;;;;;0.20;0.20;;;;;;;;;;4973857;28;20269;-74
2023/12/23 11:19:02;;;;;;;0.20;0.20;;;;;;;;;;4987423;28;20205;-73
2023/12/23 11:21:29;;;;;;;0.20;0.20;;;;;;;;;;4977940;28;20436;-73
2023/12/23 11:23:57;;;;;;;0.20;0.20;;;;;;;;;;4988093;28;20230;-73
2023/12/23 11:26:42;;;;;;;0.27;0.27;;;;;;;;;;4977825;28;20502;-73
2023/12/23 11:29:12;;;;;;;0.20;0.20;;;;;;;;;;4987905;28;20289;-73
2023/12/23 11:31:39;;;;;;;0.20;0.20;;;;;;;;;;4977403;28;20253;-73
2023/12/23 11:34:23;;;;;;;0.20;0.20;;;;;;;;;;4988246;28;20278;-75
2023/12/23 11:36:50;;;;;;;0.20;0.20;;;;;;;;;;4977461;28;20249;-73
2023/12/23 11:39:17;;;;;;;0.20;0.20;;;;;;;;;;4987586;28;20404;-73
2023/12/23 11:41:45;;;;;;;0.20;0.20;;;;;;;;;;4977259;28;20245;-73
2023/12/23 11:44:13;;;;;;;0.20;0.20;;;;;;;;;;4988229;28;20389;-73
2023/12/23 11:46:40;;;;;;;0.20;0.20;;;;;;;;;;4977093;28;20257;-73
2023/12/23 11:49:10;;;;;;;0.20;0.20;;;;;;;;;;4987848;28;20238;-73
2023/12/23 11:51:37;;;;;;;0.20;0.20;;;;;;;;;;4977089;28;20253;-74
2023/12/23 11:54:04;;;;;;;0.20;0.20;;;;;;;;;;4987815;28;20207;-74
2023/12/23 11:56:30;;;;;;;0.20;0.20;;;;;;;;;;4977121;28;20253;-73
2023/12/23 11:59:00;;;;;;;0.20;0.20;;;;;;;;;;4987537;28;20460;-73
2023/12/23 12:01:28;;;;;;;0.20;0.20;;;;;;;;;;4977270;28;20444;-73
2023/12/23 12:03:55;;;;;;;0.20;0.20;;;;;;;;;;4987057;28;20227;-74
2023/12/23 12:06:25;;;;;;;0.20;0.20;;;;;;;;;;4977001;28;20289;-73
2023/12/23 12:08:51;;;;;;;0.20;0.20;;;;;;;;;;4986823;28;20245;-74
2023/12/23 12:11:18;;;;;;;0.20;0.20;;;;;;;;;;4977119;28;20255;-73
2023/12/23 12:13:45;;;;;;;0.20;0.20;;;;;;;;;;4987213;28;20266;-73
2023/12/23 12:16:12;;;;;;;0.20;0.20;;;;;;;;;;4977105;28;20253;-74
2023/12/23 12:18:42;;;;;;;0.30;0.30;;;;;;;;;;4987252;28;20397;-74
2023/12/23 12:21:09;;;;;;;0.20;0.20;;;;;;;;;;4960243;28;20245;-74
2023/12/23 12:23:36;;;;;;;0.20;0.20;;;;;;;;;;4987065;28;20207;-73
2023/12/23 12:26:03;;;;;;;0.20;0.20;;;;;;;;;;4976739;28;20265;-73
2023/12/23 12:28:30;;;;;;;0.20;0.20;;;;;;;;;;4986520;28;20279;-73
2023/12/23 12:31:07;;;;;;;0.20;0.20;;;;;;;;;;4976228;28;20310;-73
2023/12/23 12:33:35;;;;;;;0.20;0.20;;;;;;;;;;4986915;28;20201;-73
2023/12/23 12:36:04;;;;;;;0.20;0.20;;;;;;;;;;4976623;28;20261;-74
2023/12/23 12:38:30;;;;;;;0.20;0.20;;;;;;;;;;4986458;28;20237;-73
2023/12/23 12:40:57;;;;;;;0.20;0.20;;;;;;;;;;4976507;28;20245;-74
2023/12/23 12:43:29;;;;;;;0.20;0.20;;;;;;;;;;4986290;28;20202;-73
2023/12/23 12:45:57;;;;;;;0.20;0.20;;;;;;;;;;4976556;28;20300;-73
2023/12/23 12:48:23;;;;;;;0.20;0.20;;;;;;;;;;4986510;28;20432;-73
2023/12/23 12:50:53;;;;;;;0.20;0.20;;;;;;;;;;4976266;28;20242;-73
2023/12/23 12:53:20;;;;;;;0.30;0.30;;;;;;;;;;4986497;28;20228;-73
2023/12/23 12:55:47;;;;;;;0.20;0.20;;;;;;;;;;4976703;28;20467;-73
2023/12/23 12:58:13;;;;;;;0.20;0.20;;;;;;;;;;4986323;28;20248;-73
2023/12/23 13:00:40;;;;;;;0.20;0.20;;;;;;;;;;4976395;28;20289;-73
2023/12/23 13:03:06;;;;;;;0.23;0.23;;;;;;;;;;4986101;28;20285;-73
2023/12/23 13:05:33;;;;;;;0.20;0.20;;;;;;;;;;4976040;28;20445;-74
2023/12/23 13:07:59;;;;;;;0.20;0.20;;;;;;;;;;4985606;28;20218;-73
2023/12/23 13:10:29;;;;;;;0.20;0.20;;;;;;;;;;4976320;28;20306;-74
2023/12/23 13:12:55;;;;;;;0.20;0.20;;;;;;;;;;4985587;28;20457;-74
2023/12/23 13:15:22;;;;;;;0.20;0.20;;;;;;;;;;4976334;28;20210;-74
2023/12/23 13:17:49;;;;;;;0.20;0.20;;;;;;;;;;4985770;28;20386;-74
2023/12/23 13:20:15;;;;;;;0.20;0.20;;;;;;;;;;4976312;28;20206;-74
2023/12/23 13:22:43;;;;;;;0.20;0.20;;;;;;;;;;4985244;28;20222;-74
2023/12/23 13:25:10;;;;;;;0.20;0.20;;;;;;;;;;4980571;28;20463;-74
2023/12/23 13:27:37;;;;;;;0.20;0.20;;;;;;;;;;4984993;28;20214;-74
2023/12/23 13:30:04;;;;;;;0.20;0.20;;;;;;;;;;4986068;28;20256;-74
2023/12/23 13:32:32;;;;;;;0.20;0.20;;;;;;;;;;4974972;28;20248;-74
2023/12/23 13:35:00;;;;;;;0.20;0.20;;;;;;;;;;4985953;28;20237;-74
2023/12/23 13:37:26;;;;;;;0.20;0.20;;;;;;;;;;4975024;28;20254;-74
2023/12/23 13:39:52;;;;;;;0.20;0.20;;;;;;;;;;4986044;28;20226;-73
2023/12/23 13:42:19;;;;;;;0.20;0.20;;;;;;;;;;4973940;28;20294;-74
2023/12/23 13:44:47;;;;;;;0.20;0.20;;;;;;;;;;4985743;28;20250;-73
2023/12/23 13:47:13;;;;;;;0.20;0.20;;;;;;;;;;4974784;28;20242;-74
2023/12/23 13:49:40;;;;;;;0.20;0.20;;;;;;;;;;4985671;28;20258;-74
2023/12/23 13:52:06;;;;;;;0.20;0.20;;;;;;;;;;4974585;28;20243;-74
2023/12/23 13:54:33;;;;;;;0.20;0.20;;;;;;;;;;4985814;28;20398;-74
2023/12/23 13:56:59;;;;;;;0.20;0.20;;;;;;;;;;4974623;28;20282;-74
2023/12/23 13:59:26;;;;;;;0.20;0.20;;;;;;;;;;4985343;28;20327;-73
2023/12/23 14:01:53;;;;;;;0.20;0.20;;;;;;;;;;4974558;28;20242;-74
2023/12/23 14:04:28;;;;;;;0.20;0.20;;;;;;;;;;5183844;27;20550;-73
2023/12/23 14:06:54;;;;;;;0.20;0.20;;;;;;;;;;5141704;27;20452;-73
2023/12/23 14:09:20;;;;;;;0.20;0.20;;;;;;;;;;5141870;28;20456;-72
2023/12/23 14:11:47;;;;;;;0.20;0.20;;;;;;;;;;5130490;28;20237;-73
2023/12/23 14:14:14;;;;;;;0.20;0.20;;;;;;;;;;5141808;28;20512;-73
2023/12/23 14:16:40;;;;;;;0.20;0.20;;;;;;;;;;5130637;28;20255;-72
2023/12/23 14:19:06;;;;;;;0.20;0.20;;;;;;;;;;5141814;28;20230;-73
2023/12/23 14:21:34;;;;;;;0.20;0.20;;;;;;;;;;5130681;28;20443;-73
2023/12/23 14:24:01;;;;;;;0.20;0.20;;;;;;;;;;5141283;28;20257;-73
2023/12/23 14:26:27;;;;;;;0.20;0.20;;;;;;;;;;5130400;28;20617;-72
2023/12/23 14:28:54;;;;;;;0.20;0.20;;;;;;;;;;5141507;28;20201;-73
2023/12/23 14:31:20;;;;;;;0.20;0.20;;;;;;;;;;5130543;28;20264;-73
2023/12/23 14:33:48;;;;;;;0.20;0.20;;;;;;;;;;5141447;28;20239;-73
2023/12/23 14:36:14;;;;;;;0.20;0.20;;;;;;;;;;5130438;28;20503;-73
2023/12/23 14:38:42;;;;;;;0.20;0.20;;;;;;;;;;5141103;28;20268;-73
2023/12/23 14:41:08;;;;;;;0.20;0.20;;;;;;;;;;5130387;28;20411;-73